createdAt,value
2019-04-05T00:00:37.338Z,7.90
2019-04-05T00:03:41.315Z,7.91
2019-04-05T00:06:45.210Z,7.90
2019-04-05T00:09:48.864Z,7.86
2019-04-05T00:12:52.576Z,7.82
2019-04-05T00:15:56.278Z,7.83
2019-04-05T00:18:59.924Z,7.81
2019-04-05T00:22:03.615Z,7.79
2019-04-05T00:25:07.334Z,7.76
2019-04-05T00:28:11.102Z,7.74
2019-04-05T00:31:14.885Z,7.71
2019-04-05T00:34:18.609Z,7.71
2019-04-05T00:37:22.237Z,7.68
2019-04-05T00:40:25.983Z,7.65
2019-04-05T00:43:29.600Z,7.61
2019-04-05T00:46:33.242Z,7.56
2019-04-05T00:49:36.971Z,7.54
2019-04-05T00:52:40.814Z,7.52
2019-04-05T00:55:44.598Z,7.46
2019-04-05T00:58:48.310Z,7.39
2019-04-05T01:01:51.978Z,7.34
2019-04-05T01:04:55.728Z,7.27
2019-04-05T01:08:00.169Z,7.24
2019-04-05T01:11:04.278Z,7.17
2019-04-05T01:14:08.580Z,7.12
2019-04-05T01:17:24.232Z,7.15
2019-04-05T01:20:18.003Z,7.13
2019-04-05T01:23:21.730Z,7.10
2019-04-05T01:26:25.560Z,7.08
2019-04-05T01:29:29.167Z,7.05
2019-04-05T01:32:32.822Z,7.00
2019-04-05T01:35:36.569Z,6.96
2019-04-05T01:38:40.172Z,6.92
2019-04-05T01:41:43.946Z,6.87
2019-04-05T01:44:47.522Z,6.82
2019-04-05T01:47:51.224Z,6.80
2019-04-05T01:50:54.975Z,6.78
2019-04-05T01:53:58.662Z,6.76
2019-04-05T01:57:02.256Z,6.72
2019-04-05T02:00:12.016Z,6.72
2019-04-05T02:03:15.743Z,6.72
2019-04-05T02:06:19.402Z,6.70
2019-04-05T02:09:23.052Z,6.69
2019-04-05T02:12:26.754Z,6.67
2019-04-05T02:15:31.091Z,6.62
2019-04-05T02:18:34.766Z,6.58
2019-04-05T02:21:38.405Z,6.52
2019-04-05T02:24:42.070Z,6.51
2019-04-05T02:27:45.768Z,6.49
2019-04-05T02:30:49.437Z,6.47
2019-04-05T02:33:53.063Z,6.42
2019-04-05T02:36:56.732Z,6.41
2019-04-05T02:40:00.316Z,6.38
2019-04-05T02:43:03.976Z,6.36
2019-04-05T02:46:22.633Z,6.36
2019-04-05T02:49:13.420Z,6.35
2019-04-05T02:52:17.269Z,6.33
2019-04-05T02:55:20.970Z,6.30
2019-04-05T02:58:24.581Z,6.31
2019-04-05T03:01:28.449Z,6.27
2019-04-05T03:04:32.049Z,6.27
2019-04-05T03:07:35.764Z,6.24
2019-04-05T03:10:54.632Z,6.20
2019-04-05T03:13:58.276Z,6.19
2019-04-05T03:17:01.941Z,6.15
2019-04-05T03:20:06.776Z,6.12
2019-04-05T03:23:10.716Z,6.11
2019-04-05T03:26:17.639Z,6.10
2019-04-05T03:29:21.351Z,6.07
2019-04-05T03:32:25.094Z,6.04
2019-04-05T03:35:28.833Z,5.95
2019-04-05T03:38:32.586Z,5.90
2019-04-05T03:41:36.382Z,5.85
2019-04-05T03:44:40.067Z,5.82
2019-04-05T03:47:43.689Z,5.75
2019-04-05T03:50:47.368Z,5.71
2019-04-05T03:53:51.024Z,5.64
2019-04-05T03:56:55.087Z,5.61
2019-04-05T03:59:58.723Z,5.59
2019-04-05T04:03:02.473Z,5.56
2019-04-05T04:06:06.027Z,5.53
2019-04-05T04:09:09.866Z,5.50
2019-04-05T04:12:13.459Z,5.49
2019-04-05T04:15:17.213Z,5.45
2019-04-05T04:18:20.873Z,5.46
2019-04-05T04:21:42.576Z,5.44
2019-04-05T04:24:46.327Z,5.42
2019-04-05T04:27:49.902Z,5.42
2019-04-05T04:30:53.636Z,5.42
2019-04-05T04:33:58.007Z,5.45
2019-04-05T04:37:01.698Z,5.44
2019-04-05T04:40:07.053Z,5.46
2019-04-05T04:43:11.194Z,5.47
2019-04-05T04:46:14.873Z,5.51
2019-04-05T04:49:18.576Z,5.55
2019-04-05T04:52:22.201Z,5.60
2019-04-05T04:55:26.018Z,5.59
2019-04-05T04:58:29.607Z,5.61
2019-04-05T05:01:33.254Z,5.64
2019-04-05T05:04:36.947Z,5.69
2019-04-05T05:07:40.622Z,5.73
2019-04-05T05:10:44.444Z,5.78
2019-04-05T05:13:48.171Z,5.85
2019-04-05T05:16:52.415Z,5.91
2019-04-05T05:19:56.222Z,5.98
2019-04-05T05:23:01.095Z,6.07
2019-04-05T05:26:04.842Z,6.17
2019-04-05T05:29:08.623Z,6.28
2019-04-05T05:32:12.950Z,6.45
2019-04-05T05:35:16.692Z,6.64
2019-04-05T05:38:20.560Z,6.81
2019-04-05T05:41:24.457Z,6.97
2019-04-05T05:44:28.940Z,7.19
2019-04-05T05:47:33.966Z,7.33
2019-04-05T05:50:38.638Z,7.47
2019-04-05T05:53:44.111Z,7.57
2019-04-05T05:56:48.861Z,7.77
2019-04-05T05:59:53.332Z,8.15
2019-04-05T06:02:57.068Z,8.40
2019-04-05T06:06:04.472Z,8.66
2019-04-05T06:09:08.245Z,8.92
2019-04-05T06:12:12.160Z,9.13
2019-04-05T06:15:15.828Z,9.41
2019-04-05T06:18:19.469Z,9.73
2019-04-05T06:21:23.248Z,10.06
2019-04-05T06:24:26.858Z,10.25
2019-04-05T06:27:30.634Z,10.44
2019-04-05T06:30:34.382Z,10.60
2019-04-05T06:33:38.053Z,10.77
2019-04-05T06:36:41.816Z,10.97
2019-04-05T06:39:45.629Z,11.06
2019-04-05T06:42:49.217Z,11.35
2019-04-05T06:45:53.047Z,11.42
2019-04-05T06:48:56.672Z,11.60
2019-04-05T06:52:00.270Z,11.86
2019-04-05T06:55:04.913Z,12.11
2019-04-05T06:58:10.516Z,12.14
2019-04-05T07:01:14.545Z,12.34
2019-04-05T07:04:18.166Z,12.32
2019-04-05T07:07:21.860Z,12.29
2019-04-05T07:10:25.453Z,12.58
2019-04-05T07:13:29.070Z,12.51
2019-04-05T07:16:32.834Z,12.69
2019-04-05T07:19:36.504Z,12.79
2019-04-05T07:22:40.229Z,13.07
2019-04-05T07:25:43.938Z,13.03
2019-04-05T07:28:47.668Z,12.98
2019-04-05T07:31:51.319Z,13.27
2019-04-05T07:34:55.234Z,13.20
2019-04-05T07:37:59.063Z,13.39
2019-04-05T07:41:03.278Z,13.39
2019-04-05T07:44:07.075Z,13.53
2019-04-05T07:47:10.817Z,13.81
2019-04-05T07:50:14.698Z,13.85
2019-04-05T07:53:18.406Z,14.16
2019-04-05T07:56:22.286Z,14.26
2019-04-05T07:59:25.868Z,14.46
2019-04-05T08:02:29.556Z,14.60
2019-04-05T08:05:33.383Z,14.80
2019-04-05T08:08:46.137Z,14.73
2019-04-05T08:11:49.844Z,14.77
2019-04-05T08:14:53.624Z,14.96
2019-04-05T08:17:57.552Z,15.43
2019-04-05T08:21:01.214Z,15.38
2019-04-05T08:24:04.839Z,15.57
2019-04-05T08:27:08.894Z,15.65
2019-04-05T08:30:12.660Z,15.69
2019-04-05T08:33:16.533Z,15.42
2019-04-05T08:36:20.580Z,15.50
2019-04-05T08:39:24.376Z,15.74
2019-04-05T08:42:28.442Z,15.84
2019-04-05T08:45:32.348Z,16.31
2019-04-05T08:48:36.376Z,16.54
2019-04-05T08:51:40.314Z,16.41
2019-04-05T08:54:44.748Z,16.21
2019-04-05T08:57:48.584Z,16.31
2019-04-05T09:00:52.699Z,17.08
2019-04-05T09:03:56.518Z,17.45
2019-04-05T09:07:00.379Z,17.48
2019-04-05T09:10:04.958Z,17.44
2019-04-05T09:13:08.808Z,17.68
2019-04-05T09:16:12.411Z,18.19
2019-04-05T09:19:23.558Z,18.63
2019-04-05T09:22:21.522Z,19.43
2019-04-05T09:25:25.213Z,19.28
2019-04-05T09:28:29.085Z,19.59
2019-04-05T09:31:32.792Z,20.00
2019-04-05T09:34:36.710Z,20.13
2019-04-05T09:37:40.428Z,20.00
2019-04-05T09:40:44.162Z,20.45
2019-04-05T09:43:47.975Z,20.06
2019-04-05T09:46:51.760Z,19.76
2019-04-05T09:49:55.654Z,20.06
2019-04-05T09:52:59.305Z,20.19
2019-04-05T09:56:02.948Z,20.09
2019-04-05T09:59:06.805Z,20.06
2019-04-05T10:02:10.758Z,20.40
2019-04-05T10:05:14.526Z,20.28
2019-04-05T10:08:18.136Z,20.48
2019-04-05T10:11:21.868Z,21.22
2019-04-05T10:14:25.638Z,20.91
2019-04-05T10:17:29.449Z,20.64
2019-04-05T10:20:33.100Z,20.46
2019-04-05T10:23:36.916Z,20.54
2019-04-05T10:26:40.728Z,20.55
2019-04-05T10:29:44.316Z,20.16
2019-04-05T10:32:48.138Z,20.26
2019-04-05T10:35:51.887Z,19.77
2019-04-05T10:38:56.011Z,20.06
2019-04-05T10:42:03.773Z,19.89
2019-04-05T10:45:07.525Z,19.68
2019-04-05T10:48:11.199Z,19.83
2019-04-05T10:51:15.022Z,20.21
2019-04-05T10:54:18.724Z,20.92
2019-04-05T10:57:22.610Z,20.59
2019-04-05T11:00:26.267Z,20.46
2019-04-05T11:03:30.039Z,20.72
2019-04-05T11:06:33.715Z,20.94
2019-04-05T11:09:37.567Z,21.28
2019-04-05T11:12:41.279Z,21.52
2019-04-05T11:15:45.137Z,21.90
2019-04-05T11:18:49.171Z,21.73
2019-04-05T11:21:52.987Z,22.02
2019-04-05T11:24:56.831Z,22.55
2019-04-05T11:28:00.716Z,22.57
2019-04-05T11:31:04.490Z,22.19
2019-04-05T11:34:08.280Z,21.44
2019-04-05T11:37:11.975Z,20.42
2019-04-05T11:40:15.683Z,19.62
2019-04-05T11:43:19.449Z,19.14
2019-04-05T11:46:23.251Z,18.62
2019-04-05T11:49:26.912Z,18.65
2019-04-05T11:52:30.630Z,18.60
2019-04-05T11:55:34.738Z,18.60
2019-04-05T11:58:40.046Z,18.78
2019-04-05T12:01:45.325Z,18.54
2019-04-05T12:04:49.038Z,18.41
2019-04-05T12:07:52.826Z,18.35
2019-04-05T12:10:56.842Z,18.18
2019-04-05T12:14:00.579Z,18.11
2019-04-05T12:17:05.554Z,17.96
2019-04-05T12:20:09.799Z,17.68
2019-04-05T12:23:13.513Z,17.65
2019-04-05T12:26:17.162Z,17.71
2019-04-05T12:29:20.829Z,17.87
2019-04-05T12:32:33.380Z,17.71
2019-04-05T12:35:31.758Z,17.51
2019-04-05T12:38:35.397Z,17.46
2019-04-05T12:41:40.976Z,17.35
2019-04-05T12:44:45.105Z,17.34
2019-04-05T12:47:49.222Z,17.03
2019-04-05T12:51:01.042Z,16.98
2019-04-05T12:53:58.270Z,16.91
2019-04-05T12:57:02.033Z,16.86
2019-04-05T13:00:12.982Z,16.64
2019-04-05T13:03:14.794Z,16.56
2019-04-05T13:06:19.894Z,16.53
2019-04-05T13:09:24.679Z,16.55
2019-04-05T13:12:28.786Z,16.50
2019-04-05T13:15:32.683Z,16.54
2019-04-05T13:18:36.374Z,16.48
2019-04-05T13:21:40.424Z,16.48
2019-04-05T13:24:44.110Z,16.42
2019-04-05T13:27:47.850Z,16.40
2019-04-05T13:30:51.719Z,16.38
2019-04-05T13:33:55.640Z,16.43
2019-04-05T13:37:01.430Z,16.48
2019-04-05T13:40:06.615Z,16.39
2019-04-05T13:43:10.403Z,16.37
2019-04-05T13:46:21.761Z,16.41
2019-04-05T13:49:19.634Z,16.38
2019-04-05T13:52:23.340Z,16.40
2019-04-05T13:55:27.131Z,16.36
2019-04-05T13:58:30.734Z,16.33
2019-04-05T14:01:34.503Z,16.32
2019-04-05T14:04:38.214Z,16.34
2019-04-05T14:07:42.294Z,16.36
2019-04-05T14:10:46.181Z,16.31
2019-04-05T14:13:49.889Z,16.27
2019-04-05T14:16:54.286Z,16.31
2019-04-05T14:19:58.671Z,16.30
2019-04-05T14:23:02.383Z,16.29
2019-04-05T14:26:06.040Z,16.31
2019-04-05T14:29:09.738Z,16.34
2019-04-05T14:32:21.224Z,16.38
2019-04-05T14:35:19.054Z,16.40
2019-04-05T14:38:23.295Z,16.43
2019-04-05T14:41:27.572Z,16.45
2019-04-05T14:44:31.418Z,16.45
2019-04-05T14:47:35.443Z,16.40
2019-04-05T14:50:39.059Z,16.40
2019-04-05T14:53:43.200Z,16.39
2019-04-05T14:56:46.968Z,16.37
2019-04-05T14:59:50.852Z,16.37
2019-04-05T15:02:55.028Z,16.36
2019-04-05T15:05:58.844Z,16.37
2019-04-05T15:09:02.983Z,16.32
2019-04-05T15:12:07.176Z,16.29
2019-04-05T15:15:11.226Z,16.30
2019-04-05T15:18:15.286Z,16.28
2019-04-05T15:21:19.079Z,16.22
2019-04-05T15:24:22.824Z,16.22
2019-04-05T15:27:26.546Z,16.15
2019-04-05T15:30:30.507Z,16.10
2019-04-05T15:33:34.237Z,16.09
2019-04-05T15:36:38.490Z,16.07
2019-04-05T15:39:44.397Z,16.02
2019-04-05T15:42:47.733Z,15.99
2019-04-05T15:45:51.486Z,15.95
2019-04-05T15:48:55.760Z,15.91
2019-04-05T15:51:59.606Z,15.86
2019-04-05T15:55:03.755Z,15.84
2019-04-05T15:58:08.422Z,15.79
2019-04-05T16:01:12.292Z,15.73
2019-04-05T16:04:15.978Z,15.69
2019-04-05T16:07:19.772Z,15.63
2019-04-05T16:10:23.687Z,15.55
2019-04-05T16:13:27.544Z,15.47
2019-04-05T16:16:31.548Z,15.40
2019-04-05T16:19:35.397Z,15.32
2019-04-05T16:22:39.256Z,15.24
2019-04-05T16:25:43.038Z,15.14
2019-04-05T16:28:46.818Z,15.09
2019-04-05T16:31:50.658Z,15.00
2019-04-05T16:34:54.334Z,14.92
2019-04-05T16:37:58.192Z,14.84
2019-04-05T16:41:01.840Z,14.76
2019-04-05T16:44:05.671Z,14.68
2019-04-05T16:47:09.498Z,14.61
2019-04-05T16:50:16.962Z,14.50
2019-04-05T16:53:20.713Z,14.44
2019-04-05T16:56:24.361Z,14.35
2019-04-05T16:59:27.984Z,14.27
2019-04-05T17:02:31.613Z,14.17
2019-04-05T17:05:35.400Z,14.10
2019-04-05T17:08:39.181Z,14.00
2019-04-05T17:11:42.920Z,13.92
2019-04-05T17:14:46.596Z,13.82
2019-04-05T17:17:50.533Z,13.73
2019-04-05T17:20:54.258Z,13.63
2019-04-05T17:23:58.194Z,13.54
2019-04-05T17:27:02.045Z,13.43
2019-04-05T17:30:06.916Z,13.36
2019-04-05T17:33:10.658Z,13.30
2019-04-05T17:36:14.292Z,13.21
2019-04-05T17:39:18.092Z,13.12
2019-04-05T17:42:22.012Z,13.05
2019-04-05T17:45:25.863Z,12.97
2019-04-05T17:48:29.566Z,12.90
2019-04-05T17:51:33.333Z,12.83
2019-04-05T17:54:37.064Z,12.76
2019-04-05T17:57:40.848Z,12.69
2019-04-05T18:00:44.987Z,12.64
2019-04-05T18:03:48.662Z,12.58
2019-04-05T18:06:52.302Z,12.49
2019-04-05T18:09:56.011Z,12.42
2019-04-05T18:12:59.868Z,12.36
2019-04-05T18:16:04.170Z,12.30
2019-04-05T18:19:08.085Z,12.17
2019-04-05T18:22:12.036Z,12.07
2019-04-05T18:25:15.873Z,12.02
2019-04-05T18:28:20.442Z,11.96
2019-04-05T18:31:24.159Z,11.91
2019-04-05T18:34:27.924Z,11.81
2019-04-05T18:37:31.602Z,11.73
2019-04-05T18:40:40.322Z,11.68
2019-04-05T18:43:40.851Z,11.59
2019-04-05T18:46:44.712Z,11.54
2019-04-05T18:49:48.730Z,11.49
2019-04-05T18:52:52.646Z,11.42
2019-04-05T18:55:56.726Z,11.36
2019-04-05T18:59:00.450Z,11.30
2019-04-05T19:02:04.350Z,11.20
2019-04-05T19:05:08.512Z,11.15
2019-04-05T19:08:12.623Z,11.11
2019-04-05T19:11:16.296Z,11.12
2019-04-05T19:14:20.088Z,11.16
2019-04-05T19:17:24.732Z,11.12
2019-04-05T19:20:28.926Z,11.06
2019-04-05T19:23:32.677Z,11.00
2019-04-05T19:26:36.778Z,10.93
2019-04-05T19:29:40.790Z,10.88
2019-04-05T19:51:20.090Z,11.36
2019-04-05T19:54:26.358Z,11.44
2019-04-05T19:57:29.740Z,11.41
2019-04-05T20:00:33.632Z,11.35
2019-04-05T20:03:37.614Z,11.25
2019-04-05T20:06:41.483Z,11.20
2019-04-05T20:09:46.962Z,11.14
2019-04-05T20:12:51.012Z,11.09
2019-04-05T20:15:54.978Z,11.03
2019-04-05T20:19:00.450Z,10.98
2019-04-05T20:22:04.118Z,10.89
2019-04-05T20:25:08.042Z,10.82
2019-04-05T20:28:11.702Z,10.76
2019-04-05T20:31:15.737Z,10.72
2019-04-05T20:34:19.512Z,10.67
2019-04-05T20:37:23.700Z,10.64
2019-04-05T20:40:27.449Z,10.58
2019-04-05T20:43:31.415Z,10.56
2019-04-05T20:46:35.476Z,10.54
2019-04-05T20:49:39.623Z,10.50
2019-04-05T20:52:43.438Z,10.48
2019-04-05T20:55:47.365Z,10.45
2019-04-05T20:58:51.352Z,10.40
2019-04-05T21:01:55.176Z,10.35
2019-04-05T21:04:58.860Z,10.29
2019-04-05T21:08:02.968Z,10.20
2019-04-05T21:11:06.923Z,10.15
2019-04-05T21:14:10.854Z,10.12
2019-04-05T21:17:14.748Z,10.09
2019-04-05T21:20:18.585Z,10.04
2019-04-05T21:23:22.227Z,10.02
2019-04-05T21:26:25.934Z,10.00
2019-04-05T21:29:29.561Z,9.96
2019-04-05T21:32:33.300Z,9.92
2019-04-05T21:35:36.959Z,9.89
2019-04-05T21:38:40.728Z,9.86
2019-04-05T21:41:44.502Z,9.85
2019-04-05T21:44:48.580Z,9.87
2019-04-05T21:47:52.271Z,9.89
2019-04-05T21:50:56.076Z,9.90
2019-04-05T21:53:59.886Z,10.03
2019-04-05T21:57:03.780Z,10.03
2019-04-05T22:00:13.331Z,10.01
2019-04-05T22:03:17.056Z,10.02
2019-04-05T22:06:20.711Z,10.03
2019-04-05T22:09:24.357Z,10.04
2019-04-05T22:12:28.232Z,9.99
2019-04-05T22:15:31.842Z,9.93
2019-04-05T22:18:35.560Z,9.89
2019-04-05T22:21:39.446Z,9.86
2019-04-05T22:24:44.410Z,9.83
2019-04-05T22:27:48.061Z,9.78
2019-04-05T22:30:51.708Z,9.70
2019-04-05T22:33:55.318Z,9.67
2019-04-05T22:36:58.954Z,9.60
2019-04-05T22:40:02.586Z,9.55
2019-04-05T22:43:06.302Z,9.52
2019-04-05T22:46:09.970Z,9.47
2019-04-05T22:49:13.566Z,9.42
2019-04-05T22:52:17.237Z,9.35
2019-04-05T22:55:20.870Z,9.29
2019-04-05T22:58:24.888Z,9.23
2019-04-05T23:01:28.494Z,9.17
2019-04-05T23:04:32.158Z,9.15
2019-04-05T23:07:35.920Z,9.12
2019-04-05T23:10:39.712Z,9.07
2019-04-05T23:13:43.432Z,9.06
2019-04-05T23:16:47.226Z,9.03
2019-04-05T23:19:51.070Z,8.97
2019-04-05T23:22:54.725Z,8.88
2019-04-05T23:25:58.442Z,8.82
2019-04-05T23:29:02.108Z,8.81
2019-04-05T23:32:05.734Z,8.75
2019-04-05T23:35:09.491Z,8.70
2019-04-05T23:38:13.313Z,8.64
2019-04-05T23:41:17.048Z,8.56
2019-04-05T23:44:20.855Z,8.54
2019-04-05T23:47:24.501Z,8.50
2019-04-05T23:50:28.220Z,8.43
2019-04-05T23:53:31.912Z,8.41
2019-04-05T23:56:35.532Z,8.39
2019-04-05T23:59:39.171Z,8.35
